createdAt,value
2018-05-25T00:01:26.718Z,13.20
2018-05-25T00:03:54.240Z,13.20
2018-05-25T00:06:21.757Z,13.20
2018-05-25T00:08:49.291Z,13.10
2018-05-25T00:11:16.792Z,13.10
2018-05-25T00:13:44.715Z,13.00
2018-05-25T00:16:12.217Z,13.00
2018-05-25T00:18:39.728Z,13.00
2018-05-25T00:21:07.347Z,13.00
2018-05-25T00:23:34.850Z,12.90
2018-05-25T00:26:02.377Z,12.50
2018-05-25T00:28:29.878Z,12.30
2018-05-25T00:30:57.426Z,12.20
2018-05-25T00:33:24.929Z,12.00
2018-05-25T00:35:52.473Z,11.90
2018-05-25T00:38:20.822Z,11.80
2018-05-25T00:40:48.761Z,11.70
2018-05-25T00:43:16.281Z,11.70
2018-05-25T00:45:43.811Z,11.70
2018-05-25T00:48:13.050Z,11.80
2018-05-25T00:50:40.588Z,11.80
2018-05-25T00:53:08.100Z,11.90
2018-05-25T00:55:39.254Z,12.00
2018-05-25T00:58:06.755Z,12.00
2018-05-25T01:00:34.285Z,12.00
2018-05-25T01:03:01.800Z,12.00
2018-05-25T01:05:29.340Z,12.00
2018-05-25T01:07:56.841Z,12.00
2018-05-25T01:10:24.381Z,11.90
2018-05-25T01:12:51.905Z,11.90
2018-05-25T01:15:19.536Z,11.90
2018-05-25T01:17:47.033Z,11.80
2018-05-25T01:20:14.560Z,11.80
2018-05-25T01:22:42.112Z,11.80
2018-05-25T01:25:09.645Z,11.90
2018-05-25T01:27:37.142Z,11.90
2018-05-25T01:30:04.677Z,12.00
2018-05-25T01:32:32.192Z,12.00
2018-05-25T01:35:00.116Z,11.90
2018-05-25T01:37:27.621Z,11.90
2018-05-25T01:39:55.156Z,11.90
2018-05-25T01:42:23.044Z,11.80
2018-05-25T01:44:50.618Z,11.80
2018-05-25T01:47:18.118Z,11.50
2018-05-25T01:49:45.646Z,11.40
2018-05-25T01:52:13.148Z,11.40
2018-05-25T01:54:40.674Z,11.40
2018-05-25T01:57:08.183Z,11.50
2018-05-25T01:59:35.688Z,11.50
2018-05-25T02:02:03.248Z,11.50
2018-05-25T02:04:30.856Z,11.20
2018-05-25T02:06:58.515Z,11.10
2018-05-25T02:09:26.018Z,11.10
2018-05-25T02:11:53.540Z,11.10
2018-05-25T02:14:21.050Z,11.10
2018-05-25T02:16:48.569Z,11.20
2018-05-25T02:19:16.061Z,11.20
2018-05-25T02:21:43.980Z,11.30
2018-05-25T02:24:11.490Z,11.30
2018-05-25T02:26:40.003Z,11.40
2018-05-25T02:29:07.500Z,11.50
2018-05-25T02:31:35.038Z,11.50
2018-05-25T02:34:02.553Z,11.40
2018-05-25T02:36:48.805Z,11.40
2018-05-25T02:39:16.312Z,11.40
2018-05-25T02:41:43.841Z,11.40
2018-05-25T02:44:11.743Z,11.10
2018-05-25T02:46:40.390Z,11.10
2018-05-25T02:49:07.917Z,10.90
2018-05-25T02:51:35.451Z,10.80
2018-05-25T02:54:03.905Z,10.60
2018-05-25T02:56:31.443Z,10.40
2018-05-25T02:58:58.945Z,10.40
2018-05-25T03:01:26.473Z,10.40
2018-05-25T03:03:53.997Z,10.40
2018-05-25T03:06:21.921Z,10.60
2018-05-25T03:08:49.437Z,10.70
2018-05-25T03:11:16.977Z,10.80
2018-05-25T03:13:44.978Z,10.90
2018-05-25T03:16:12.513Z,10.90
2018-05-25T03:18:40.088Z,11.10
2018-05-25T03:21:07.622Z,11.10
2018-05-25T03:23:35.130Z,11.10
2018-05-25T03:26:02.683Z,11.10
2018-05-25T03:28:30.301Z,11.10
2018-05-25T03:30:57.969Z,11.10
2018-05-25T03:33:25.497Z,11.10
2018-05-25T03:35:53.072Z,11.10
2018-05-25T03:38:20.587Z,11.10
2018-05-25T03:40:48.598Z,11.10
2018-05-25T03:43:16.126Z,11.10
2018-05-25T03:45:44.119Z,11.10
2018-05-25T03:48:11.781Z,11.10
2018-05-25T03:50:39.276Z,11.10
2018-05-25T03:53:06.899Z,11.10
2018-05-25T03:55:34.406Z,11.10
2018-05-25T03:58:02.330Z,11.20
2018-05-25T04:00:41.794Z,11.20
2018-05-25T04:03:10.574Z,11.30
2018-05-25T04:05:38.089Z,11.30
2018-05-25T04:08:07.022Z,11.30
2018-05-25T04:10:34.538Z,11.40
2018-05-25T04:13:02.069Z,11.40
2018-05-25T04:15:29.577Z,11.40
2018-05-25T04:17:57.121Z,11.40
2018-05-25T04:20:24.620Z,11.40
2018-05-25T04:22:52.168Z,11.30
2018-05-25T04:25:20.072Z,11.20
2018-05-25T04:27:47.641Z,11.10
2018-05-25T04:30:15.590Z,11.10
2018-05-25T04:32:43.121Z,11.10
2018-05-25T04:35:10.617Z,11.20
2018-05-25T04:37:38.149Z,11.30
2018-05-25T04:40:05.644Z,11.40
2018-05-25T04:42:33.177Z,11.50
2018-05-25T04:45:01.880Z,11.60
2018-05-25T04:47:29.412Z,11.60
2018-05-25T04:49:57.466Z,11.70
2018-05-25T04:52:25.031Z,11.80
2018-05-25T04:54:52.534Z,11.90
2018-05-25T04:57:20.072Z,12.00
2018-05-25T04:59:47.606Z,12.20
2018-05-25T05:02:15.280Z,12.20
2018-05-25T05:04:42.925Z,12.40
2018-05-25T05:07:10.585Z,12.40
2018-05-25T05:09:38.237Z,12.50
2018-05-25T05:12:05.747Z,12.60
2018-05-25T05:14:33.563Z,12.70
2018-05-25T05:17:01.070Z,13.00
2018-05-25T05:19:29.013Z,13.20
2018-05-25T05:21:56.741Z,13.20
2018-05-25T05:24:24.295Z,13.40
2018-05-25T05:26:51.800Z,13.70
2018-05-25T05:29:19.327Z,13.70
2018-05-25T05:31:46.840Z,13.70
2018-05-25T05:34:14.415Z,13.90
2018-05-25T05:36:41.932Z,14.20
2018-05-25T05:39:09.875Z,14.60
2018-05-25T05:41:37.382Z,14.60
2018-05-25T05:44:04.916Z,14.80
2018-05-25T05:46:32.818Z,15.10
2018-05-25T05:49:00.462Z,15.20
2018-05-25T05:51:30.767Z,15.40
2018-05-25T05:53:58.358Z,15.90
2018-05-25T05:56:25.861Z,16.00
2018-05-25T05:58:53.862Z,16.80
2018-05-25T06:01:21.530Z,16.90
2018-05-25T06:03:49.182Z,17.50
2018-05-25T06:06:16.681Z,18.00
2018-05-25T06:08:44.301Z,18.60
2018-05-25T06:11:11.810Z,19.70
2018-05-25T06:13:39.453Z,20.20
2018-05-25T06:16:06.960Z,21.10
2018-05-25T06:18:34.519Z,22.00
2018-05-25T06:21:02.041Z,22.80
2018-05-25T06:23:29.560Z,23.50
2018-05-25T06:25:57.081Z,23.90
2018-05-25T06:28:24.617Z,24.10
2018-05-25T06:30:52.619Z,25.40
2018-05-25T06:33:20.292Z,25.50
2018-05-25T06:35:47.809Z,26.00
2018-05-25T06:38:15.309Z,27.40
2018-05-25T06:40:43.705Z,27.90
2018-05-25T06:43:11.310Z,27.40
2018-05-25T06:45:38.837Z,27.10
2018-05-25T06:48:06.741Z,26.70
2018-05-25T06:50:34.502Z,26.70
2018-05-25T06:53:02.022Z,28.00
2018-05-25T06:55:30.026Z,29.90
2018-05-25T06:57:57.583Z,29.90
2018-05-25T07:00:25.492Z,30.00
2018-05-25T07:02:53.021Z,30.00
2018-05-25T07:05:21.601Z,29.70
2018-05-25T07:07:49.113Z,29.90
2018-05-25T07:10:16.677Z,31.20
2018-05-25T07:12:44.244Z,30.80
2018-05-25T07:15:11.785Z,30.20
2018-05-25T07:17:39.292Z,30.60
2018-05-25T07:20:06.825Z,30.70
2018-05-25T07:22:34.478Z,32.20
2018-05-25T07:25:02.037Z,31.80
2018-05-25T07:27:29.593Z,31.90
2018-05-25T07:29:59.314Z,33.30
2018-05-25T07:32:26.826Z,34.10
2018-05-25T07:34:54.364Z,34.90
2018-05-25T07:37:21.879Z,34.50
2018-05-25T07:39:49.422Z,35.00
2018-05-25T07:42:16.934Z,35.90
2018-05-25T07:44:44.467Z,37.00
2018-05-25T07:47:12.293Z,37.80
2018-05-25T07:49:39.824Z,37.90
2018-05-25T07:52:07.397Z,37.80
2018-05-25T07:54:35.468Z,38.30
2018-05-25T07:57:02.979Z,38.40
2018-05-25T07:59:30.516Z,37.40
2018-05-25T08:01:58.030Z,38.00
2018-05-25T08:04:25.698Z,38.70
2018-05-25T08:06:53.193Z,38.40
2018-05-25T08:09:20.929Z,39.30
2018-05-25T08:11:48.476Z,39.60
2018-05-25T08:14:16.124Z,39.50
2018-05-25T08:16:43.667Z,40.00
2018-05-25T08:19:11.229Z,40.10
2018-05-25T08:21:38.941Z,40.70
2018-05-25T08:24:06.554Z,40.80
2018-05-25T08:26:34.218Z,41.10
2018-05-25T08:29:01.726Z,41.40
2018-05-25T08:31:29.743Z,40.60
2018-05-25T08:33:57.245Z,40.60
2018-05-25T08:36:24.794Z,39.60
2018-05-25T08:38:52.293Z,38.80
2018-05-25T08:41:19.988Z,38.60
2018-05-25T08:43:48.046Z,37.70
2018-05-25T08:46:15.590Z,38.10
2018-05-25T08:48:43.107Z,38.50
2018-05-25T08:51:10.636Z,38.50
2018-05-25T08:53:38.261Z,37.70
2018-05-25T08:56:05.797Z,37.30
2018-05-25T08:58:33.315Z,38.10
2018-05-25T09:01:00.942Z,37.80
2018-05-25T09:03:28.449Z,38.10
2018-05-25T09:05:55.994Z,37.10
2018-05-25T09:08:23.498Z,37.20
2018-05-25T09:10:51.029Z,37.50
2018-05-25T09:13:18.529Z,37.90
2018-05-25T09:15:46.061Z,38.90
2018-05-25T09:18:13.557Z,38.90
2018-05-25T09:20:42.134Z,39.00
2018-05-25T09:23:09.749Z,38.90
2018-05-25T09:25:37.403Z,39.10
2018-05-25T09:28:05.061Z,39.20
2018-05-25T09:30:32.598Z,38.50
2018-05-25T09:33:00.492Z,38.20
2018-05-25T09:35:28.255Z,38.20
2018-05-25T09:37:55.783Z,38.90
2018-05-25T09:40:23.301Z,39.30
2018-05-25T09:42:50.836Z,38.90
2018-05-25T09:45:18.333Z,39.00
2018-05-25T09:47:46.252Z,38.10
2018-05-25T09:50:13.791Z,38.10
2018-05-25T09:52:48.085Z,38.20
2018-05-25T09:55:15.584Z,37.70
2018-05-25T09:57:54.081Z,37.20
2018-05-25T10:00:21.594Z,36.10
2018-05-25T10:02:49.129Z,34.70
2018-05-25T10:05:16.919Z,34.70
2018-05-25T10:07:44.610Z,34.70
2018-05-25T10:10:12.122Z,34.70
2018-05-25T10:12:40.053Z,36.00
2018-05-25T10:15:09.840Z,36.70
2018-05-25T10:17:37.498Z,36.70
2018-05-25T10:20:05.464Z,37.00
2018-05-25T10:22:32.997Z,36.30
2018-05-25T10:25:00.510Z,33.80
2018-05-25T10:27:28.037Z,32.10
2018-05-25T10:29:55.538Z,33.10
2018-05-25T10:32:23.085Z,33.70
2018-05-25T10:34:50.591Z,34.20
2018-05-25T10:37:18.123Z,35.50
2018-05-25T10:39:45.626Z,33.50
2018-05-25T10:42:13.471Z,33.50
2018-05-25T10:44:40.969Z,33.40
2018-05-25T10:47:08.497Z,33.20
2018-05-25T10:49:36.242Z,33.20
2018-05-25T10:52:03.781Z,30.90
2018-05-25T10:54:31.342Z,30.50
2018-05-25T10:56:58.880Z,30.00
2018-05-25T10:59:26.886Z,28.70
2018-05-25T11:01:54.538Z,28.40
2018-05-25T11:04:22.034Z,27.60
2018-05-25T11:06:49.553Z,27.40
2018-05-25T11:09:17.086Z,27.30
2018-05-25T11:11:44.768Z,27.40
2018-05-25T11:14:12.431Z,27.40
2018-05-25T11:16:40.084Z,27.20
2018-05-25T11:19:07.819Z,27.20
2018-05-25T11:21:35.397Z,26.40
2018-05-25T11:24:03.046Z,25.90
2018-05-25T11:26:30.714Z,25.80
2018-05-25T11:28:58.368Z,25.90
2018-05-25T11:31:26.033Z,26.20
2018-05-25T11:33:53.673Z,26.80
2018-05-25T11:36:21.177Z,27.10
2018-05-25T11:38:48.719Z,27.50
2018-05-25T11:41:16.262Z,26.80
2018-05-25T11:43:43.793Z,26.70
2018-05-25T11:46:11.319Z,26.50
2018-05-25T11:48:39.025Z,26.00
2018-05-25T11:51:06.687Z,25.90
2018-05-25T11:53:34.243Z,25.70
2018-05-25T11:56:01.742Z,25.40
2018-05-25T11:58:29.276Z,25.40
2018-05-25T12:00:56.782Z,25.30
2018-05-25T12:03:24.775Z,25.60
2018-05-25T12:05:52.287Z,25.20
2018-05-25T12:08:20.293Z,25.00
2018-05-25T12:10:47.805Z,24.90
2018-05-25T12:13:15.407Z,24.60
2018-05-25T12:15:42.915Z,24.60
2018-05-25T12:18:10.448Z,25.20
2018-05-25T12:20:39.737Z,25.30
2018-05-25T12:23:07.474Z,25.30
2018-05-25T12:25:34.978Z,25.40
2018-05-25T12:28:02.533Z,25.30
2018-05-25T12:30:30.034Z,25.30
2018-05-25T12:32:57.709Z,25.00
2018-05-25T12:35:25.261Z,25.00
2018-05-25T12:37:53.123Z,24.90
2018-05-25T12:40:20.690Z,24.80
2018-05-25T12:42:48.205Z,24.70
2018-05-25T12:45:16.289Z,24.20
2018-05-25T12:47:44.398Z,24.20
2018-05-25T12:50:12.905Z,24.20
2018-05-25T12:52:40.423Z,24.00
2018-05-25T12:55:07.948Z,24.00
2018-05-25T12:57:35.457Z,23.90
2018-05-25T13:00:03.390Z,23.70
2018-05-25T13:02:31.553Z,23.70
2018-05-25T13:04:59.308Z,23.70
2018-05-25T13:07:26.816Z,23.60
2018-05-25T13:09:55.522Z,23.40
2018-05-25T13:12:23.506Z,23.30
2018-05-25T13:14:51.044Z,23.30
2018-05-25T13:17:18.942Z,23.30
2018-05-25T13:19:46.497Z,23.30
2018-05-25T13:22:14.009Z,23.30
2018-05-25T13:24:41.961Z,23.40
2018-05-25T13:27:09.480Z,23.40
2018-05-25T13:29:37.005Z,23.50
2018-05-25T13:32:04.590Z,23.80
2018-05-25T13:34:32.146Z,23.90
2018-05-25T13:36:59.702Z,23.80
2018-05-25T13:39:27.243Z,23.80
2018-05-25T13:41:54.762Z,24.00
2018-05-25T13:44:22.464Z,24.00
2018-05-25T13:46:49.979Z,24.00
2018-05-25T13:49:17.526Z,24.00
2018-05-25T13:51:45.039Z,24.00
2018-05-25T13:54:13.254Z,24.00
2018-05-25T13:56:40.770Z,24.00
2018-05-25T13:59:08.430Z,23.90
2018-05-25T14:01:36.078Z,23.90
2018-05-25T14:04:03.811Z,23.90
2018-05-25T14:06:31.736Z,23.80
2018-05-25T14:08:59.265Z,23.70
2018-05-25T14:11:26.974Z,23.70
2018-05-25T14:13:54.593Z,23.70
2018-05-25T14:16:22.247Z,23.90
2018-05-25T14:18:49.769Z,24.10
2018-05-25T14:21:18.320Z,24.20
2018-05-25T14:23:47.693Z,24.20
2018-05-25T14:26:15.221Z,24.30
2018-05-25T14:28:42.735Z,24.40
2018-05-25T14:31:10.857Z,24.20
2018-05-25T14:33:38.369Z,24.10
2018-05-25T14:36:06.305Z,24.10
2018-05-25T14:38:33.807Z,24.10
2018-05-25T14:41:01.329Z,24.00
2018-05-25T14:43:28.850Z,24.10
2018-05-25T14:45:56.394Z,24.20
2018-05-25T14:48:23.903Z,24.20
2018-05-25T14:50:51.853Z,24.00
2018-05-25T14:53:19.373Z,24.10
2018-05-25T14:55:47.029Z,24.10
2018-05-25T14:58:14.529Z,24.10
2018-05-25T15:00:42.072Z,24.20
2018-05-25T15:03:10.810Z,24.10
2018-05-25T15:05:38.356Z,24.00
2018-05-25T15:08:06.262Z,23.90
2018-05-25T15:10:33.811Z,23.70
2018-05-25T15:13:01.465Z,23.60
2018-05-25T15:15:29.006Z,23.50
2018-05-25T15:17:56.576Z,23.20
2018-05-25T15:20:24.105Z,22.90
2018-05-25T15:22:51.997Z,22.40
2018-05-25T15:25:19.552Z,22.40
2018-05-25T15:27:47.201Z,22.30
2018-05-25T15:30:14.717Z,21.90
2018-05-25T15:32:42.910Z,21.50
2018-05-25T15:35:10.261Z,21.50
2018-05-25T15:37:38.181Z,21.10
2018-05-25T15:40:05.710Z,21.10
2018-05-25T15:42:33.245Z,21.10
2018-05-25T15:45:00.826Z,21.20
2018-05-25T15:47:28.362Z,21.30
2018-05-25T15:49:55.868Z,21.40
2018-05-25T15:52:23.500Z,21.40
2018-05-25T15:54:50.997Z,21.40
2018-05-25T15:57:18.542Z,21.50
2018-05-25T15:59:46.054Z,21.40
2018-05-25T16:02:13.631Z,21.40
2018-05-25T16:04:41.710Z,21.30
2018-05-25T16:07:09.253Z,21.30
2018-05-25T16:09:37.463Z,21.10
2018-05-25T16:12:05.068Z,21.20
2018-05-25T16:14:32.671Z,21.20
2018-05-25T16:17:00.202Z,21.20
2018-05-25T16:19:27.853Z,21.30
2018-05-25T16:21:55.392Z,21.20
2018-05-25T16:24:22.948Z,21.30
2018-05-25T16:26:50.611Z,21.30
2018-05-25T16:29:18.130Z,21.30
2018-05-25T16:31:46.061Z,21.30
2018-05-25T16:34:13.574Z,21.30
2018-05-25T16:36:42.269Z,21.40
2018-05-25T16:39:09.930Z,21.30
2018-05-25T16:41:37.469Z,21.30
2018-05-25T16:44:04.988Z,21.30
2018-05-25T16:46:32.556Z,21.10
2018-05-25T16:49:00.457Z,21.10
2018-05-25T16:51:27.981Z,21.00
2018-05-25T16:53:55.909Z,20.80
2018-05-25T16:56:23.526Z,20.80
2018-05-25T16:58:51.082Z,20.60
2018-05-25T17:01:19.884Z,20.40
2018-05-25T17:03:47.415Z,20.30
2018-05-25T17:06:15.041Z,20.20
2018-05-25T17:08:42.584Z,20.10
2018-05-25T17:11:10.095Z,20.00
2018-05-25T17:13:37.634Z,19.90
2018-05-25T17:16:05.529Z,19.60
2018-05-25T17:18:33.085Z,19.60
2018-05-25T17:21:01.617Z,19.50
2018-05-25T17:23:29.569Z,19.40
2018-05-25T17:25:57.499Z,19.30
2018-05-25T17:28:25.050Z,19.20
2018-05-25T17:30:52.562Z,19.20
2018-05-25T17:33:20.101Z,19.20
2018-05-25T17:35:47.620Z,19.00
2018-05-25T17:38:15.146Z,19.00
2018-05-25T17:40:42.644Z,18.90
2018-05-25T17:43:10.201Z,18.80
2018-05-25T17:45:37.729Z,18.80
2018-05-25T17:48:05.273Z,18.70
2018-05-25T17:50:33.581Z,18.60
2018-05-25T17:53:01.114Z,18.60
2018-05-25T17:55:28.768Z,18.60
2018-05-25T17:57:56.311Z,18.60
2018-05-25T18:00:24.209Z,18.60
2018-05-25T18:02:51.739Z,18.60
2018-05-25T18:05:19.934Z,18.60
2018-05-25T18:07:47.467Z,18.60
2018-05-25T18:10:14.982Z,18.60
2018-05-25T18:12:42.521Z,18.60
2018-05-25T18:15:10.032Z,18.60
2018-05-25T18:17:37.913Z,18.60
2018-05-25T18:20:05.573Z,18.60
2018-05-25T18:22:33.118Z,18.50
2018-05-25T18:25:00.694Z,18.50
2018-05-25T18:27:28.260Z,18.40
2018-05-25T18:29:55.814Z,18.40
2018-05-25T18:32:23.363Z,18.40
2018-05-25T18:34:50.919Z,18.40
2018-05-25T18:37:18.430Z,18.40
2018-05-25T18:39:46.438Z,18.40
2018-05-25T18:42:13.953Z,18.40
2018-05-25T18:44:41.882Z,18.40
2018-05-25T18:47:09.381Z,18.40
2018-05-25T18:49:37.668Z,18.30
2018-05-25T18:52:05.186Z,18.30
2018-05-25T18:54:33.637Z,18.30
2018-05-25T18:57:03.380Z,18.30
2018-05-25T18:59:30.925Z,18.30
2018-05-25T19:01:58.437Z,18.20
2018-05-25T19:04:27.053Z,18.20
2018-05-25T19:06:54.577Z,18.00
2018-05-25T19:09:22.131Z,17.90
2018-05-25T19:11:49.690Z,17.80
2018-05-25T19:14:17.347Z,17.80
2018-05-25T19:16:45.005Z,17.70
2018-05-25T19:19:12.539Z,17.70
2018-05-25T19:21:40.113Z,17.60
2018-05-25T19:24:07.645Z,17.60
2018-05-25T19:26:35.542Z,17.60
2018-05-25T19:29:03.077Z,17.60
2018-05-25T19:31:30.752Z,17.50
2018-05-25T19:33:58.281Z,17.50
2018-05-25T19:36:26.185Z,17.40
2018-05-25T19:38:53.730Z,17.40
2018-05-25T19:41:21.393Z,17.40
2018-05-25T19:43:49.033Z,17.30
2018-05-25T19:46:16.545Z,17.30
2018-05-25T19:48:44.729Z,17.20
2018-05-25T19:51:12.239Z,17.20
2018-05-25T19:53:39.774Z,17.10
2018-05-25T19:56:07.341Z,17.10
2018-05-25T19:58:36.572Z,17.00
2018-05-25T20:01:04.110Z,17.00
2018-05-25T20:03:31.652Z,16.90
2018-05-25T20:05:59.160Z,16.90
2018-05-25T20:08:26.699Z,16.80
2018-05-25T20:10:54.318Z,16.80
2018-05-25T20:13:22.101Z,16.80
2018-05-25T20:15:50.594Z,16.80
2018-05-25T20:18:18.129Z,16.70
2018-05-25T20:20:46.454Z,16.70
2018-05-25T20:23:14.377Z,16.60
2018-05-25T20:25:42.082Z,16.60
2018-05-25T20:28:09.582Z,16.60
2018-05-25T20:30:37.394Z,16.50
2018-05-25T20:33:04.902Z,16.40
2018-05-25T20:35:32.436Z,16.40
2018-05-25T20:37:59.944Z,16.30
2018-05-25T20:40:27.656Z,16.30
2018-05-25T20:42:55.154Z,16.20
2018-05-25T20:45:22.764Z,16.20
2018-05-25T20:47:50.275Z,16.10
2018-05-25T20:50:17.827Z,16.10
2018-05-25T20:52:45.337Z,16.00
2018-05-25T20:55:12.874Z,16.00
2018-05-25T20:57:40.438Z,16.00
2018-05-25T21:00:08.113Z,16.00
2018-05-25T21:02:35.629Z,15.90
2018-05-25T21:05:03.570Z,15.90
2018-05-25T21:07:31.078Z,15.90
2018-05-25T21:09:58.741Z,15.90
2018-05-25T21:12:26.275Z,15.80
2018-05-25T21:14:53.806Z,15.80
2018-05-25T21:17:21.318Z,15.80
2018-05-25T21:19:48.929Z,15.70
2018-05-25T21:22:16.433Z,15.70
2018-05-25T21:24:43.972Z,15.70
2018-05-25T21:27:11.477Z,15.70
2018-05-25T21:29:38.997Z,15.60
2018-05-25T21:32:06.514Z,15.60
2018-05-25T21:34:34.445Z,15.50
2018-05-25T21:37:02.638Z,15.50
2018-05-25T21:39:30.561Z,15.50
2018-05-25T21:41:58.089Z,15.50
2018-05-25T21:44:25.641Z,15.40
2018-05-25T21:46:53.166Z,15.40
2018-05-25T21:49:20.671Z,15.40
2018-05-25T21:51:48.333Z,15.30
2018-05-25T21:54:15.851Z,15.30
2018-05-25T21:56:43.369Z,15.30
2018-05-25T21:59:10.868Z,15.20
2018-05-25T22:01:38.393Z,15.10
2018-05-25T22:04:05.889Z,14.80
2018-05-25T22:06:33.454Z,14.70
2018-05-25T22:09:01.117Z,14.70
2018-05-25T22:11:28.764Z,14.70
2018-05-25T22:13:56.431Z,14.70
2018-05-25T22:16:24.019Z,14.70
2018-05-25T22:18:51.635Z,14.70
2018-05-25T22:21:19.189Z,14.70
2018-05-25T22:23:46.709Z,14.70
2018-05-25T22:26:14.309Z,14.70
2018-05-25T22:28:41.819Z,14.70
2018-05-25T22:31:09.347Z,14.70
2018-05-25T22:33:36.989Z,14.60
2018-05-25T22:36:04.533Z,14.60
2018-05-25T22:38:32.037Z,14.50
2018-05-25T22:40:59.665Z,14.50
2018-05-25T22:43:39.005Z,14.40
2018-05-25T22:46:18.365Z,14.40
2018-05-25T22:48:57.641Z,14.30
2018-05-25T22:51:36.908Z,14.30
2018-05-25T22:54:09.540Z,14.30
2018-05-25T22:56:37.071Z,14.30
2018-05-25T22:59:04.968Z,14.30
2018-05-25T23:01:32.498Z,14.30
2018-05-25T23:04:00.958Z,14.30
2018-05-25T23:06:28.481Z,14.30
2018-05-25T23:08:56.137Z,14.20
2018-05-25T23:11:24.265Z,14.20
2018-05-25T23:13:52.170Z,14.20
2018-05-25T23:16:19.701Z,14.20
2018-05-25T23:18:47.364Z,14.20
2018-05-25T23:21:15.030Z,14.10
2018-05-25T23:23:42.541Z,14.10
2018-05-25T23:26:10.086Z,14.10
2018-05-25T23:28:37.605Z,14.00
2018-05-25T23:31:05.370Z,14.00
2018-05-25T23:33:33.113Z,13.90
2018-05-25T23:36:00.622Z,13.80
2018-05-25T23:38:28.150Z,13.80
2018-05-25T23:40:55.686Z,13.80
2018-05-25T23:43:23.222Z,13.80
2018-05-25T23:45:51.700Z,13.90
2018-05-25T23:48:19.277Z,13.90
2018-05-25T23:50:46.797Z,13.80
2018-05-25T23:53:14.807Z,13.80
2018-05-25T23:55:42.458Z,13.80
2018-05-25T23:58:10.110Z,13.80
